Time;durP1;ratioP1;P1;durP2;ratioP2;P2;SDS_P1;SDS_P2;PMS_P1;PMS_P2;Temp;Humidity;BMP_temperature;BMP_pressure;BME280_temperature;BME280_humidity;BME280_pressure;Samples;Min_cycle;Max_cycle;Signal;HPM_P1;HPM_P2
2023/04/16 00:02:09;;;;;;;17.77;6.55;;;;;;;14.25;94.32;93778.44;5024388;28;20025;-87
2023/04/16 00:04:35;;;;;;;16.50;5.35;;;;;;;14.11;94.64;93768.00;5022922;28;20035;-89
2023/04/16 00:07:00;;;;;;;22.00;6.22;;;;;;;13.77;95.42;93772.81;5024323;28;20024;-88
2023/04/16 00:09:26;;;;;;;20.10;6.47;;;;;;;14.15;96.44;93774.22;5040291;28;20021;-88
2023/04/16 00:11:51;;;;;;;19.30;5.50;;;;;;;13.93;96.41;93770.56;5040487;28;20431;-88
2023/04/16 00:14:16;;;;;;;17.35;5.68;;;;;;;13.80;99.59;93771.44;5040461;28;20119;-88
2023/04/16 00:16:42;;;;;;;14.45;5.53;;;;;;;14.16;96.48;93773.13;5024011;28;20070;-87
2023/04/16 00:19:07;;;;;;;23.63;5.43;;;;;;;13.10;100.00;93764.59;5040264;28;20029;-88
2023/04/16 00:21:32;;;;;;;21.92;6.00;;;;;;;13.68;99.19;93764.06;5040005;28;20032;-88
2023/04/16 00:23:58;;;;;;;16.17;5.78;;;;;;;14.00;96.58;93768.28;5023938;28;20025;-88
2023/04/16 00:26:43;;;;;;;25.55;5.25;;;;;;;14.18;95.32;93776.25;5023985;28;20030;-88
2023/04/16 00:29:08;;;;;;;14.73;4.78;;;;;;;14.03;93.50;93779.28;5040428;28;20331;-89
2023/04/16 00:31:33;;;;;;;19.77;5.78;;;;;;;13.88;93.98;93781.22;5040270;28;20033;-88
2023/04/16 00:33:59;;;;;;;18.60;4.97;;;;;;;12.83;100.00;93771.50;5040100;28;20029;-88
2023/04/16 00:36:26;;;;;;;20.15;5.18;;;;;;;13.70;98.80;93775.06;5057852;28;20048;-88
2023/04/16 00:38:52;;;;;;;21.75;6.40;;;;;;;13.68;98.88;93778.03;5039901;28;20036;-89
2023/04/16 00:41:17;;;;;;;23.33;6.50;;;;;;;13.64;99.54;93773.66;5023693;28;20342;-89
2023/04/16 00:43:43;;;;;;;20.00;5.78;;;;;;;14.02;96.54;93772.47;5039940;28;20036;-88
2023/04/16 00:46:09;;;;;;;21.58;5.70;;;;;;;13.63;95.42;93764.22;5039860;28;20430;-88
2023/04/16 00:48:35;;;;;;;16.63;5.43;;;;;;;14.20;94.41;93770.69;5023122;28;20029;-88
2023/04/16 00:51:06;;;;;;;19.75;5.28;;;;;;;14.14;92.44;93776.09;5023543;28;20071;-88
2023/04/16 00:53:32;;;;;;;13.68;4.70;;;;;;;14.13;92.31;93773.75;5039757;28;20143;-88
2023/04/16 00:55:58;;;;;;;20.45;5.15;;;;;;;13.95;95.89;93775.53;5039711;28;20115;-88
2023/04/16 00:58:24;;;;;;;14.93;5.55;;;;;;;14.07;91.63;93773.09;5042013;28;20116;-89
2023/04/16 01:00:50;;;;;;;17.52;5.03;;;;;;;13.77;93.04;93759.66;5059486;28;20021;-88
2023/04/16 01:03:15;;;;;;;14.68;4.93;;;;;;;14.02;92.71;93761.91;5059530;28;20024;-88
2023/04/16 01:05:41;;;;;;;19.52;5.03;;;;;;;14.02;89.29;93767.19;5059464;28;20495;-88
2023/04/16 01:08:06;;;;;;;21.55;5.35;;;;;;;14.04;90.71;93762.38;5059329;28;20110;-88
2023/04/16 01:10:32;;;;;;;16.23;5.00;;;;;;;14.38;86.51;93760.97;5042520;28;20021;-88
2023/04/16 01:12:57;;;;;;;13.90;5.18;;;;;;;14.50;87.94;93763.81;5059415;28;20044;-88
2023/04/16 01:15:22;;;;;;;17.02;5.95;;;;;;;14.36;88.24;93771.06;5041108;28;20033;-88
2023/04/16 01:17:52;;;;;;;12.50;4.72;;;;;;;14.72;85.43;93769.31;5026010;28;20028;-89
2023/04/16 01:20:18;;;;;;;23.52;6.65;;;;;;;14.15;86.47;93771.59;5049276;28;20123;-89
2023/04/16 01:22:43;;;;;;;17.50;6.20;;;;;;;13.74;90.39;93767.38;5042715;28;20371;-88
2023/04/16 01:25:13;;;;;;;18.95;6.10;;;;;;;14.13;88.93;93771.91;5077000;28;20119;-88
2023/04/16 01:27:38;;;;;;;17.45;6.40;;;;;;;13.73;90.71;93763.19;5039190;28;20346;-88
2023/04/16 01:30:04;;;;;;;20.30;7.35;;;;;;;13.29;94.17;93753.91;5023382;28;20032;-88
2023/04/16 01:32:31;;;;;;;17.58;5.55;;;;;;;13.56;94.00;93762.78;5023761;28;20422;-88
2023/04/16 01:34:56;;;;;;;16.80;6.22;;;;;;;13.56;91.51;93746.22;5039170;28;20039;-88
2023/04/16 01:37:21;;;;;;;21.35;5.10;;;;;;;13.66;88.62;93767.03;5039153;28;20025;-88
2023/04/16 01:39:47;;;;;;;26.27;5.65;;;;;;;13.45;90.59;93758.84;5022696;28;20025;-89
2023/04/16 01:42:12;;;;;;;12.10;4.38;;;;;;;13.52;90.49;93761.06;5038984;28;20377;-89
2023/04/16 01:44:38;;;;;;;18.17;4.97;;;;;;;13.30;88.95;93765.19;5022725;28;20029;-88
2023/04/16 01:47:03;;;;;;;14.90;4.63;;;;;;;13.48;90.88;93767.97;5034961;28;20326;-89
2023/04/16 01:49:28;;;;;;;18.30;5.00;;;;;;;13.34;88.70;93757.50;5042454;28;20028;-88
2023/04/16 01:51:54;;;;;;;16.88;4.82;;;;;;;13.04;93.06;93768.41;5059170;28;20422;-88
2023/04/16 01:54:19;;;;;;;15.60;6.20;;;;;;;13.09;92.85;93767.53;5058802;28;20029;-88
2023/04/16 01:56:45;;;;;;;23.05;5.10;;;;;;;13.41;88.93;93757.84;5042368;28;20021;-88
2023/04/16 01:59:11;;;;;;;13.63;4.70;;;;;;;13.53;88.20;93765.25;5042408;28;20123;-88
2023/04/16 02:01:36;;;;;;;22.10;5.57;;;;;;;13.68;88.02;93772.75;5042382;28;20028;-89
2023/04/16 02:04:02;;;;;;;16.45;4.93;;;;;;;13.41;87.69;93758.63;5042015;28;20303;-88
2023/04/16 02:06:27;;;;;;;20.75;5.55;;;;;;;12.99;92.07;93758.81;5058768;28;20337;-89
2023/04/16 02:08:52;;;;;;;23.42;5.93;;;;;;;13.34;88.39;93763.56;5042087;28;20119;-88
2023/04/16 02:11:18;;;;;;;14.32;4.43;;;;;;;13.29;89.88;93761.81;5058722;28;20020;-88
2023/04/16 02:13:43;;;;;;;14.20;5.07;;;;;;;13.38;85.37;93764.50;5058720;28;20024;-88
2023/04/16 02:16:09;;;;;;;12.70;5.18;;;;;;;13.26;90.68;93753.72;5042224;28;20111;-89
2023/04/16 02:18:34;;;;;;;16.63;5.70;;;;;;;13.26;89.57;93761.63;5042152;28;20020;-88
2023/04/16 02:21:00;;;;;;;19.13;5.35;;;;;;;12.85;93.54;93768.56;5041981;28;20029;-88
2023/04/16 02:23:25;;;;;;;15.98;5.63;;;;;;;12.85;91.75;93768.56;5058622;28;20028;-88
2023/04/16 02:25:51;;;;;;;19.08;7.30;;;;;;;12.02;100.00;93767.56;5058926;28;20115;-88
2023/04/16 02:28:16;;;;;;;16.55;6.45;;;;;;;12.83;95.90;93768.06;5043531;28;20422;-89
2023/04/16 02:30:42;;;;;;;16.38;6.35;;;;;;;13.01;95.40;93769.00;5045926;28;20050;-88
2023/04/16 02:33:09;;;;;;;20.20;6.35;;;;;;;13.24;92.68;93758.50;5062529;28;20507;-88
2023/04/16 02:35:35;;;;;;;25.17;7.20;;;;;;;13.20;94.33;93768.06;5045915;28;20082;-88
2023/04/16 02:38:01;;;;;;;25.05;7.80;;;;;;;12.70;99.14;93770.47;5045718;28;20024;-87
2023/04/16 02:40:27;;;;;;;17.67;7.63;;;;;;;13.41;93.19;93773.63;5045672;28;20323;-88
2023/04/16 02:42:53;;;;;;;27.63;8.73;;;;;;;13.32;94.66;93768.31;5045696;28;20031;-88
2023/04/16 02:45:20;;;;;;;19.13;7.95;;;;;;;13.13;95.53;93774.53;5062075;28;20047;-88
2023/04/16 02:47:45;;;;;;;23.17;7.03;;;;;;;12.70;99.08;93778.34;5062088;28;20025;-89
2023/04/16 02:50:11;;;;;;;19.38;8.10;;;;;;;12.54;100.00;93780.50;5045579;28;20050;-88
2023/04/16 02:52:36;;;;;;;18.58;8.65;;;;;;;13.04;95.76;93775.53;5061996;28;20036;-88
2023/04/16 02:55:02;;;;;;;25.10;10.07;;;;;;;13.08;96.23;93781.75;5061904;28;20059;-89
2023/04/16 02:57:27;;;;;;;18.17;7.60;;;;;;;13.18;94.56;93780.72;5078591;28;20043;-88
2023/04/16 02:59:53;;;;;;;18.77;7.75;;;;;;;13.28;92.44;93791.03;5036874;28;20430;-88
2023/04/16 03:02:18;;;;;;;20.40;9.00;;;;;;;12.73;97.44;93777.75;5054519;28;20028;-88
2023/04/16 03:04:44;;;;;;;28.00;10.35;;;;;;;12.82;96.96;93788.34;5047708;28;20402;-89
2023/04/16 03:07:13;;;;;;;28.15;10.20;;;;;;;12.57;98.48;93787.78;5025110;28;20036;-88
2023/04/16 03:09:40;;;;;;;25.27;10.15;;;;;;;13.11;94.89;93795.09;5025698;28;20350;-88
2023/04/16 03:12:06;;;;;;;29.85;9.38;;;;;;;12.24;100.00;93801.03;5025412;28;20029;-88
2023/04/16 03:14:31;;;;;;;20.45;7.88;;;;;;;12.68;97.45;93800.72;5025326;28;20346;-88
2023/04/16 03:16:57;;;;;;;20.25;8.18;;;;;;;12.71;96.68;93802.75;5025276;28;20037;-88
2023/04/16 03:19:22;;;;;;;16.15;7.95;;;;;;;13.08;96.04;93803.56;5041406;28;20035;-88
2023/04/16 03:21:48;;;;;;;18.10;8.23;;;;;;;12.92;95.17;93802.34;5041327;28;20082;-88
2023/04/16 03:24:13;;;;;;;21.52;8.38;;;;;;;13.41;91.34;93813.88;5041450;28;20332;-88
2023/04/16 03:26:39;;;;;;;22.50;8.55;;;;;;;13.14;91.53;93812.91;5041470;28;20103;-88
2023/04/16 03:29:04;;;;;;;26.55;8.43;;;;;;;13.53;90.85;93812.59;5024840;28;20055;-88
2023/04/16 03:31:30;;;;;;;26.40;8.10;;;;;;;13.10;93.84;93813.78;5059095;28;20028;-88
2023/04/16 03:33:55;;;;;;;19.00;7.65;;;;;;;13.33;91.71;93813.81;5041293;28;20411;-88
2023/04/16 03:36:26;;;;;;;17.75;7.40;;;;;;;13.28;91.77;93814.72;5041539;28;20343;-88
2023/04/16 03:38:52;;;;;;;17.45;6.85;;;;;;;12.59;95.51;93817.16;5041432;28;20334;-89
2023/04/16 03:41:17;;;;;;;19.83;7.60;;;;;;;12.72;96.18;93817.44;5041120;28;20033;-88
2023/04/16 03:43:43;;;;;;;21.75;7.07;;;;;;;12.77;93.88;93812.13;5024796;28;20414;-88
2023/04/16 03:46:08;;;;;;;16.10;7.13;;;;;;;12.81;94.96;93812.28;5024708;28;20123;-88
2023/04/16 03:48:34;;;;;;;16.98;6.28;;;;;;;12.28;97.02;93811.75;5024549;28;20446;-88
2023/04/16 03:50:59;;;;;;;15.77;5.75;;;;;;;12.51;95.18;93820.50;5024697;28;20025;-88
2023/04/16 03:53:24;;;;;;;11.45;6.95;;;;;;;12.50;96.63;93816.31;5058632;28;20086;-88
2023/04/16 03:55:50;;;;;;;14.25;7.32;;;;;;;12.46;94.51;93820.56;5024536;28;20025;-88
2023/04/16 03:58:16;;;;;;;16.30;6.68;;;;;;;12.70;91.73;93825.66;5024343;28;20024;-88
2023/04/16 04:00:42;;;;;;;16.30;7.45;;;;;;;12.61;91.81;93827.41;5058486;28;20044;-88
2023/04/16 04:03:08;;;;;;;16.45;8.05;;;;;;;12.52;95.17;93834.41;5040994;28;20449;-88
2023/04/16 04:05:40;;;;;;;23.23;8.35;;;;;;;12.58;95.15;93835.88;5040607;28;20032;-88
2023/04/16 04:08:06;;;;;;;16.75;7.97;;;;;;;12.09;100.00;93838.84;5040328;28;20078;-88
2023/04/16 04:10:34;;;;;;;21.67;9.00;;;;;;;12.29;97.48;93834.31;5023888;28;20025;-88
2023/04/16 04:13:02;;;;;;;23.75;8.70;;;;;;;12.31;99.18;93834.78;5040563;28;20036;-89
2023/04/16 04:15:27;;;;;;;20.98;8.45;;;;;;;12.43;95.34;93842.19;5024351;28;20086;-91
2023/04/16 04:17:56;;;;;;;20.52;8.43;;;;;;;12.52;93.33;93845.69;5023821;28;20033;-88
2023/04/16 04:20:22;;;;;;;17.92;8.05;;;;;;;12.20;95.84;93839.44;5034197;28;20025;-89
2023/04/16 04:22:47;;;;;;;18.63;8.10;;;;;;;12.23;96.54;93845.94;5040575;28;20597;-88
2023/04/16 04:25:13;;;;;;;16.85;7.78;;;;;;;12.40;94.79;93842.78;5040314;28;20035;-88
2023/04/16 04:27:38;;;;;;;18.98;8.60;;;;;;;12.21;98.12;93859.41;5040393;28;20029;-88
2023/04/16 04:30:05;;;;;;;23.42;8.48;;;;;;;12.07;98.74;93859.34;5040076;28;20488;-89
2023/04/16 04:32:30;;;;;;;19.75;8.20;;;;;;;12.31;95.83;93855.81;5056698;28;20045;-88
2023/04/16 04:34:59;;;;;;;19.02;8.50;;;;;;;12.57;96.04;93868.47;5034837;28;20035;-88
2023/04/16 04:37:24;;;;;;;18.98;8.85;;;;;;;12.22;98.11;93868.81;5026703;28;20063;-88
2023/04/16 04:39:50;;;;;;;24.83;7.80;;;;;;;12.07;97.89;93871.72;5045804;28;20060;-88
2023/04/16 04:42:17;;;;;;;24.00;8.00;;;;;;;12.59;96.13;93867.09;5046345;28;20044;-88
2023/04/16 04:44:43;;;;;;;16.63;7.72;;;;;;;12.36;97.32;93865.44;5057755;28;20116;-88
2023/04/16 04:47:11;;;;;;;13.75;6.15;;;;;;;12.16;99.88;93870.75;5023691;28;20040;-88
2023/04/16 04:49:36;;;;;;;21.10;6.78;;;;;;;12.06;99.02;93872.78;5039558;28;20122;-87
2023/04/16 04:52:01;;;;;;;21.65;6.05;;;;;;;11.91;100.00;93874.56;5056921;28;20112;-88
2023/04/16 04:54:31;;;;;;;27.20;6.03;;;;;;;11.88;100.00;93875.13;5057508;28;20029;-88
2023/04/16 04:56:56;;;;;;;22.35;6.82;;;;;;;12.04;99.53;93878.31;5023097;28;20029;-88
2023/04/16 04:59:22;;;;;;;16.17;5.82;;;;;;;11.99;100.00;93879.16;5023314;28;20374;-88
2023/04/16 05:01:48;;;;;;;22.05;6.50;;;;;;;12.04;100.00;93882.78;5023280;28;20177;-88
2023/04/16 05:04:13;;;;;;;14.90;6.60;;;;;;;11.98;100.00;93882.06;5023316;28;20029;-88
2023/04/16 05:06:38;;;;;;;23.15;6.90;;;;;;;11.72;100.00;93877.22;5039896;28;20090;-88
2023/04/16 05:09:04;;;;;;;19.77;6.57;;;;;;;11.82;100.00;93889.41;5022782;28;20033;-88
2023/04/16 05:11:30;;;;;;;23.38;6.90;;;;;;;11.98;100.00;93885.47;5039434;28;20044;-88
2023/04/16 05:13:55;;;;;;;22.40;7.47;;;;;;;12.32;98.79;93898.59;5039493;28;20029;-88
2023/04/16 05:16:21;;;;;;;15.85;6.68;;;;;;;12.61;95.83;93895.72;5022910;28;20033;-88
2023/04/16 05:18:46;;;;;;;18.98;7.70;;;;;;;12.45;96.87;93897.84;5023026;28;20430;-88
2023/04/16 05:21:11;;;;;;;21.52;7.82;;;;;;;12.54;95.67;93901.38;5022964;28;20041;-87
2023/04/16 05:23:37;;;;;;;23.95;7.65;;;;;;;12.35;100.00;93898.81;5039011;28;20025;-87
2023/04/16 05:26:02;;;;;;;18.90;7.22;;;;;;;12.67;95.21;93899.81;5039260;28;20032;-87
2023/04/16 05:28:29;;;;;;;17.27;6.47;;;;;;;12.76;96.36;93905.16;5039126;28;20033;-89
2023/04/16 05:30:54;;;;;;;21.25;6.93;;;;;;;12.80;94.00;93902.72;5039255;28;20020;-88
2023/04/16 05:33:20;;;;;;;19.85;6.13;;;;;;;12.75;94.42;93911.47;5056881;28;20032;-88
2023/04/16 05:35:45;;;;;;;17.33;5.53;;;;;;;12.92;93.05;93910.91;5039150;28;20029;-88
2023/04/16 05:38:10;;;;;;;14.48;5.28;;;;;;;13.09;93.15;93912.97;5022715;28;20130;-87
2023/04/16 05:40:36;;;;;;;18.17;5.15;;;;;;;13.21;92.36;93912.44;5039001;28;20426;-88
2023/04/16 05:43:01;;;;;;;12.93;5.55;;;;;;;13.21;93.85;93916.94;5039287;28;20033;-88
2023/04/16 05:45:27;;;;;;;9.98;4.85;;;;;;;13.59;89.60;93916.69;5039013;28;20111;-87
2023/04/16 05:47:52;;;;;;;15.18;4.40;;;;;;;13.70;89.14;93915.38;5022639;28;20032;-88
2023/04/16 05:50:17;;;;;;;10.80;4.20;;;;;;;13.68;84.77;93920.19;5039197;28;20025;-88
2023/04/16 05:52:43;;;;;;;9.75;3.40;;;;;;;13.80;85.12;93929.41;5038897;28;20116;-88
2023/04/16 05:55:08;;;;;;;12.55;4.10;;;;;;;13.93;84.57;93925.94;5038967;28;20315;-88
2023/04/16 05:57:34;;;;;;;13.48;5.00;;;;;;;13.64;83.71;93924.50;5038994;28;20119;-89
2023/04/16 05:59:59;;;;;;;13.02;3.95;;;;;;;13.53;80.63;93928.41;5039145;28;20038;-88
2023/04/16 06:02:25;;;;;;;9.27;3.63;;;;;;;14.03;79.96;93929.41;5040448;28;20060;-88
2023/04/16 06:04:50;;;;;;;15.35;4.25;;;;;;;14.14;77.96;93931.50;5043207;28;20025;-88
2023/04/16 06:07:15;;;;;;;11.15;3.47;;;;;;;14.28;76.90;93931.44;5026545;28;20029;-89
2023/04/16 06:09:41;;;;;;;9.68;3.50;;;;;;;14.10;81.04;93935.03;5042546;28;20135;-88
2023/04/16 06:12:06;;;;;;;19.30;9.02;;;;;;;14.39;82.73;93939.09;5026522;28;20422;-88
2023/04/16 06:14:32;;;;;;;18.10;7.85;;;;;;;14.50;79.61;93939.63;5026540;28;20098;-88
2023/04/16 06:16:57;;;;;;;17.70;7.22;;;;;;;14.80;76.91;93946.00;5060509;28;20028;-88
2023/04/16 06:19:22;;;;;;;12.82;5.28;;;;;;;14.56;76.46;93938.41;5060318;28;20025;-88
2023/04/16 06:21:48;;;;;;;8.88;3.38;;;;;;;14.81;71.82;93938.84;5042680;28;20098;-88
2023/04/16 06:24:13;;;;;;;2.92;1.13;;;;;;;14.36;63.92;93943.09;5042640;28;20407;-88
2023/04/16 06:26:39;;;;;;;5.50;2.50;;;;;;;14.83;69.12;93936.69;5042516;28;20115;-88
2023/04/16 06:29:04;;;;;;;22.80;8.15;;;;;;;14.97;71.12;93947.16;5060177;28;20377;-87
2023/04/16 06:31:30;;;;;;;6.05;1.17;;;;;;;14.37;63.32;93943.91;5025864;28;20021;-88
2023/04/16 06:33:55;;;;;;;10.98;2.35;;;;;;;14.49;65.23;93954.66;5042306;28;20082;-88
2023/04/16 06:36:21;;;;;;;4.50;1.40;;;;;;;14.88;64.82;93954.25;5042383;28;20029;-88
2023/04/16 06:38:46;;;;;;;7.60;2.58;;;;;;;14.70;63.48;93954.94;5025877;28;20414;-88
2023/04/16 06:41:13;;;;;;;3.15;1.17;;;;;;;14.92;63.91;93963.09;5042696;28;20029;-87
2023/04/16 06:43:38;;;;;;;4.10;1.13;;;;;;;15.15;63.30;93971.75;5025835;28;20032;-88
2023/04/16 06:46:04;;;;;;;4.15;1.10;;;;;;;14.63;57.94;93959.84;5025942;28;20031;-88
2023/04/16 06:48:29;;;;;;;5.13;1.20;;;;;;;14.02;58.55;93970.00;5041840;28;20028;-89
2023/04/16 06:50:55;;;;;;;5.53;1.00;;;;;;;14.47;59.17;93969.97;5025779;28;20059;-88
2023/04/16 06:53:21;;;;;;;2.83;1.00;;;;;;;14.52;59.71;93972.50;5025687;28;20035;-89
2023/04/16 06:55:47;;;;;;;6.00;1.60;;;;;;;14.78;59.45;93973.75;5041887;28;20028;-88
2023/04/16 06:58:12;;;;;;;6.30;1.13;;;;;;;14.49;61.02;93974.97;5025529;28;20525;-88
2023/04/16 07:00:37;;;;;;;4.40;1.10;;;;;;;13.47;57.13;93971.69;5041847;28;20461;-88
2023/04/16 07:03:03;;;;;;;5.47;1.33;;;;;;;13.83;61.67;93978.84;5025512;28;20170;-88
2023/04/16 07:05:28;;;;;;;8.25;1.40;;;;;;;14.31;60.64;93977.50;5034328;28;20029;-88
2023/04/16 07:07:56;;;;;;;6.32;1.90;;;;;;;15.25;59.30;93981.22;5042097;28;20060;-88
2023/04/16 07:10:22;;;;;;;5.60;1.50;;;;;;;15.19;59.38;93971.88;5058646;28;20029;-90
2023/04/16 07:12:47;;;;;;;6.30;1.30;;;;;;;15.25;57.88;93973.31;5042177;28;20378;-88
2023/04/16 07:15:13;;;;;;;3.85;1.20;;;;;;;15.07;59.39;93990.94;5057775;28;20033;-88
2023/04/16 07:17:38;;;;;;;7.75;1.60;;;;;;;14.65;57.97;93981.41;5041694;28;20033;-89
2023/04/16 07:20:04;;;;;;;7.63;1.48;;;;;;;15.20;57.37;93981.34;5041602;28;20029;-89
2023/04/16 07:22:29;;;;;;;4.55;1.65;;;;;;;15.27;57.08;93977.19;5041838;28;20056;-89
2023/04/16 07:24:55;;;;;;;12.60;1.88;;;;;;;14.82;60.41;93978.13;5041797;28;20502;-89
2023/04/16 07:27:20;;;;;;;6.07;1.85;;;;;;;14.71;57.87;93979.44;5041826;28;20029;-89
2023/04/16 07:29:46;;;;;;;5.40;2.00;;;;;;;15.66;58.01;93984.56;5041301;28;20033;-89
2023/04/16 07:32:12;;;;;;;6.82;1.60;;;;;;;15.72;57.62;93990.50;5041433;28;20029;-88
2023/04/16 07:34:37;;;;;;;3.92;1.55;;;;;;;15.81;55.04;93988.66;5041497;28;20025;-89
2023/04/16 07:37:03;;;;;;;7.15;1.77;;;;;;;16.16;56.68;93988.69;5058423;28;20029;-90
2023/04/16 07:39:28;;;;;;;3.15;1.50;;;;;;;15.19;60.37;93971.88;5041053;28;20033;-90
2023/04/16 07:41:53;;;;;;;4.32;1.60;;;;;;;15.36;55.93;93984.38;5040905;28;20028;-90
2023/04/16 07:44:19;;;;;;;3.63;1.42;;;;;;;15.60;54.92;93988.47;5041272;28;20119;-91
2023/04/16 07:46:44;;;;;;;5.88;1.80;;;;;;;15.80;57.53;93985.22;5041307;28;20071;-91
2023/04/16 07:49:10;;;;;;;10.07;2.72;;;;;;;15.75;55.81;93997.78;5041052;28;20082;-90
2023/04/16 07:51:35;;;;;;;7.65;2.97;;;;;;;14.99;60.50;93987.19;5058652;28;20115;-91
2023/04/16 07:54:01;;;;;;;5.88;2.60;;;;;;;15.49;55.86;93995.88;5041004;28;20037;-91
2023/04/16 07:56:26;;;;;;;5.78;2.35;;;;;;;14.06;56.75;93992.81;5040955;28;20332;-91
2023/04/16 07:58:52;;;;;;;8.52;2.30;;;;;;;14.81;56.63;93994.22;5040902;28;20033;-90
2023/04/16 08:01:17;;;;;;;5.85;2.25;;;;;;;15.22;53.94;93995.03;5041117;28;20040;-91
2023/04/16 08:03:43;;;;;;;6.22;2.03;;;;;;;15.67;58.09;94005.41;5040689;28;20029;-91
2023/04/16 08:06:08;;;;;;;9.32;2.45;;;;;;;16.16;54.70;94004.53;5040753;28;20040;-91
2023/04/16 08:08:33;;;;;;;5.70;2.50;;;;;;;16.61;56.45;94011.34;5040511;28;20033;-91
2023/04/16 08:10:59;;;;;;;4.43;2.10;;;;;;;16.29;53.86;94013.41;5040865;28;20025;-91
2023/04/16 08:13:24;;;;;;;8.25;2.60;;;;;;;15.49;54.17;94011.72;5040668;28;20029;-90
2023/04/16 08:15:50;;;;;;;6.22;2.33;;;;;;;15.41;54.79;94015.88;5040577;28;20434;-90
2023/04/16 08:18:15;;;;;;;8.05;2.17;;;;;;;16.14;52.84;94025.22;5040451;28;20076;-90
2023/04/16 08:20:41;;;;;;;7.25;1.88;;;;;;;15.48;55.16;94016.22;5040471;28;20426;-92
2023/04/16 08:23:07;;;;;;;5.18;2.30;;;;;;;15.09;53.50;94021.22;5040419;28;20070;-90
2023/04/16 08:25:32;;;;;;;7.82;2.63;;;;;;;15.78;54.65;94026.22;5039580;28;20040;-90
2023/04/16 08:27:58;;;;;;;8.43;2.22;;;;;;;15.43;51.74;94018.22;5040347;28;20037;-91
2023/04/16 08:30:23;;;;;;;6.63;2.78;;;;;;;15.65;51.76;94022.63;5040367;28;20032;-91
2023/04/16 08:32:49;;;;;;;4.63;2.45;;;;;;;15.75;52.57;94034.78;5040272;28;20047;-92
2023/04/16 08:35:14;;;;;;;7.03;2.90;;;;;;;15.31;50.79;94027.50;5040435;28;20084;-93
2023/04/16 08:37:40;;;;;;;6.82;2.28;;;;;;;16.16;52.03;94028.31;5040318;28;20104;-92
2023/04/16 08:40:06;;;;;;;4.65;2.42;;;;;;;15.84;54.04;94038.97;5040187;28;20033;-92
2023/04/16 08:42:35;;;;;;;4.43;2.20;;;;;;;16.64;51.65;94039.03;5040245;28;20114;-90
2023/04/16 08:45:14;;;;;;;6.40;2.47;;;;;;;16.05;51.36;94038.44;5040247;28;20025;-92
2023/04/16 08:47:40;;;;;;;4.18;2.00;;;;;;;15.47;50.68;94035.78;5040161;28;20104;-91
2023/04/16 08:50:08;;;;;;;3.92;1.90;;;;;;;15.90;52.58;94042.28;5039856;28;20178;-90
2023/04/16 08:52:36;;;;;;;5.32;2.22;;;;;;;15.46;52.93;94049.28;5040107;28;20434;-91
2023/04/16 08:55:15;;;;;;;5.53;2.33;;;;;;;16.42;50.42;94053.97;5039953;28;20124;-91
2023/04/16 08:57:57;;;;;;;7.82;2.25;;;;;;;16.47;51.79;94064.41;5074333;28;20127;-91
2023/04/16 09:00:23;;;;;;;2.95;1.85;;;;;;;15.85;51.36;94055.63;5037199;28;20418;-93
2023/04/16 09:02:50;;;;;;;5.80;1.48;;;;;;;16.90;49.58;94067.31;5036798;28;20035;-93
2023/04/16 09:05:16;;;;;;;5.78;1.80;;;;;;;16.88;48.06;94062.34;5036859;28;20032;-91
2023/04/16 09:07:46;;;;;;;7.38;1.20;;;;;;;17.07;48.35;94063.88;5036679;28;20047;-92
2023/04/16 09:10:12;;;;;;;4.07;1.60;;;;;;;16.94;52.06;94060.31;5036734;28;20032;-92
2023/04/16 09:12:39;;;;;;;4.38;1.60;;;;;;;17.47;48.31;94055.66;5036637;28;20032;-94
2023/04/16 09:15:05;;;;;;;3.45;1.48;;;;;;;16.73;50.37;94058.31;5036421;28;20063;-92
2023/04/16 09:17:31;;;;;;;2.70;1.35;;;;;;;16.00;46.90;94072.16;5032869;28;20061;-91
2023/04/16 09:19:56;;;;;;;2.60;1.25;;;;;;;16.57;46.43;94071.25;5034112;28;20057;-91
2023/04/16 09:22:22;;;;;;;7.55;1.13;;;;;;;17.12;48.94;94073.53;5020491;28;20025;-94
2023/04/16 09:24:47;;;;;;;1.98;1.00;;;;;;;17.29;47.32;94070.81;5016710;28;20032;-91
2023/04/16 09:27:13;;;;;;;4.22;1.40;;;;;;;17.52;49.66;94073.25;5022485;28;20091;-91
2023/04/16 09:29:40;;;;;;;4.07;1.15;;;;;;;17.85;47.48;94077.13;5048896;28;20144;-91
2023/04/16 09:32:07;;;;;;;4.18;1.17;;;;;;;16.67;45.40;94086.78;5032582;28;20175;-91
2023/04/16 09:34:33;;;;;;;4.70;1.30;;;;;;;17.10;48.78;94081.78;5049135;28;20025;-92
2023/04/16 09:37:50;;;;;;;4.63;1.27;;;;;;;17.30;46.69;94087.50;5016244;28;20034;-91
2023/04/16 09:40:23;;;;;;;2.75;1.30;;;;;;;17.09;47.61;94086.31;5032826;28;20064;-92
2023/04/16 09:42:49;;;;;;;3.38;1.48;;;;;;;16.64;47.39;94086.63;5032848;28;20033;-91
2023/04/16 09:45:14;;;;;;;3.45;1.20;;;;;;;17.74;46.65;94082.00;5032596;28;20029;-90
2023/04/16 09:47:41;;;;;;;3.90;1.50;;;;;;;17.53;46.89;94086.16;5042476;28;20124;-91
2023/04/16 09:50:23;;;;;;;3.25;1.52;;;;;;;16.85;46.11;94080.72;5036433;28;20029;-90
2023/04/16 09:53:02;;;;;;;;;;;;;;;;;;;;;
2023/04/16 09:55:41;;;;;;;;;;;;;;;;;;;;;
2023/04/16 09:58:07;;;;;;;4.57;1.35;;;;;;;16.01;46.27;94081.63;5051230;28;20021;-92
2023/04/16 10:00:32;;;;;;;5.85;1.23;;;;;;;16.18;46.77;94076.34;5036393;28;20124;-92
2023/04/16 10:03:05;;;;;;;4.47;1.10;;;;;;;17.83;47.26;94076.66;5028236;28;20338;-92
2023/04/16 10:05:31;;;;;;;2.88;1.13;;;;;;;17.73;45.96;94075.94;5035716;28;20057;-93
2023/04/16 10:08:01;;;;;;;2.03;1.20;;;;;;;18.77;46.09;94067.59;5029206;28;20450;-92
2023/04/16 10:10:28;;;;;;;6.68;1.35;;;;;;;17.48;43.25;94088.97;5022245;28;20124;-91
2023/04/16 10:12:54;;;;;;;6.22;1.30;;;;;;;17.02;45.43;94088.63;5019115;28;20030;-92
2023/04/16 10:15:20;;;;;;;4.03;1.20;;;;;;;17.20;47.02;94083.28;5003047;28;20123;-91
2023/04/16 10:17:48;;;;;;;2.33;1.17;;;;;;;17.31;43.99;94087.16;5019305;28;20446;-91
2023/04/16 10:20:17;;;;;;;2.63;1.25;;;;;;;17.44;43.33;94081.97;5019085;28;20342;-91
2023/04/16 10:22:47;;;;;;;1.88;1.00;;;;;;;18.05;44.68;94073.75;5018562;28;20030;-90
2023/04/16 10:25:13;;;;;;;1.88;0.85;;;;;;;18.61;43.09;94069.28;5005652;28;20073;-91
2023/04/16 10:27:39;;;;;;;4.82;1.52;;;;;;;18.39;43.23;94070.41;5022790;28;20253;-91
2023/04/16 10:30:16;;;;;;;2.75;1.20;;;;;;;18.51;50.28;94070.47;5029560;28;20030;-91
2023/04/16 10:32:47;;;;;;;3.80;1.10;;;;;;;18.23;43.25;94076.28;5002731;28;20029;-92
2023/04/16 10:35:19;;;;;;;4.47;1.17;;;;;;;17.47;42.90;94084.00;5002644;28;20077;-91
2023/04/16 10:37:52;;;;;;;1.88;0.93;;;;;;;18.26;42.56;94069.56;5002907;28;20045;-91
2023/04/16 10:40:22;;;;;;;3.88;1.10;;;;;;;18.06;41.65;94074.53;5004939;28;20097;-92
2023/04/16 10:42:58;;;;;;;2.95;1.10;;;;;;;16.49;45.56;94085.25;5018940;28;20481;-91
2023/04/16 10:45:33;;;;;;;5.80;1.20;;;;;;;16.93;46.20;94083.34;5031086;28;20021;-92
2023/04/16 10:48:03;;;;;;;6.30;1.52;;;;;;;17.70;45.01;94081.88;5010448;28;20060;-91
2023/04/16 10:50:36;;;;;;;6.20;1.90;;;;;;;17.15;47.31;94080.84;5014616;28;20030;-91
2023/04/16 10:53:36;;;;;;;3.65;1.42;;;;;;;18.37;44.57;94073.41;5013757;28;20034;-92
2023/04/16 10:56:02;;;;;;;2.55;1.20;;;;;;;18.67;43.81;94081.28;5005717;28;20183;-93
2023/04/16 10:58:28;;;;;;;3.17;1.00;;;;;;;19.45;43.08;94084.28;5032601;28;20060;-90
2023/04/16 11:00:54;;;;;;;3.67;1.30;;;;;;;17.62;46.31;94094.06;5013373;28;20065;-90
2023/04/16 11:03:19;;;;;;;10.20;1.75;;;;;;;17.40;46.34;94094.31;5030066;28;20080;-91
2023/04/16 11:05:48;;;;;;;2.38;1.10;;;;;;;17.94;45.31;94083.16;5021074;28;20026;-91
2023/04/16 11:08:14;;;;;;;3.92;1.13;;;;;;;17.45;46.04;94078.25;5023841;28;20113;-91
2023/04/16 11:10:40;;;;;;;2.53;1.35;;;;;;;17.21;43.21;94075.06;5026446;28;20427;-90
2023/04/16 11:13:06;;;;;;;2.05;1.33;;;;;;;17.66;42.40;94078.31;5030325;28;20075;-89
2023/04/16 11:15:33;;;;;;;2.22;1.40;;;;;;;18.58;42.51;94064.66;5011881;28;20028;-91
2023/04/16 11:17:59;;;;;;;4.90;1.15;;;;;;;19.21;42.14;94061.88;5017773;28;20124;-91
2023/04/16 11:20:25;;;;;;;4.35;1.70;;;;;;;18.00;41.29;94059.88;5011157;28;20087;-92
2023/04/16 11:22:53;;;;;;;2.03;1.17;;;;;;;17.92;41.86;94074.75;5029013;28;20125;-92
2023/04/16 11:25:37;;;;;;;1.92;1.17;;;;;;;18.03;42.24;94069.88;5023608;28;20164;-91
2023/04/16 11:28:02;;;;;;;2.47;1.40;;;;;;;18.78;44.43;94074.44;5034334;28;20167;-92
2023/04/16 11:30:33;;;;;;;4.30;1.40;;;;;;;18.57;43.41;94077.13;5008991;28;20456;-90